sensor_id;sensor_type;location;lat;lon;timestamp;temperature;humidity
54124;DHT22;55741;53.252;5.788;2024-03-07T00:01:34;3.10;99.90
54124;DHT22;55741;53.252;5.788;2024-03-07T00:04:01;3.20;99.90
54124;DHT22;55741;53.252;5.788;2024-03-07T00:06:28;3.10;99.90
54124;DHT22;55741;53.252;5.788;2024-03-07T00:08:55;3.10;99.90
54124;DHT22;55741;53.252;5.788;2024-03-07T00:11:22;3.10;99.90
54124;DHT22;55741;53.252;5.788;2024-03-07T00:13:52;3.10;99.90
54124;DHT22;55741;53.252;5.788;2024-03-07T00:16:22;3.20;99.90
54124;DHT22;55741;53.252;5.788;2024-03-07T00:18:49;3.10;99.90
54124;DHT22;55741;53.252;5.788;2024-03-07T00:21:16;3.10;99.90
54124;DHT22;55741;53.252;5.788;2024-03-07T00:23:43;3.20;99.90
54124;DHT22;55741;53.252;5.788;2024-03-07T00:26:10;3.20;99.90
54124;DHT22;55741;53.252;5.788;2024-03-07T00:28:37;3.20;99.90
54124;DHT22;55741;53.252;5.788;2024-03-07T00:31:06;3.20;99.90
54124;DHT22;55741;53.252;5.788;2024-03-07T00:33:34;3.20;99.90
54124;DHT22;55741;53.252;5.788;2024-03-07T00:36:01;3.20;99.90
54124;DHT22;55741;53.252;5.788;2024-03-07T00:38:28;3.20;99.90
54124;DHT22;55741;53.252;5.788;2024-03-07T00:40:56;3.20;99.90
54124;DHT22;55741;53.252;5.788;2024-03-07T00:43:23;3.10;99.90
54124;DHT22;55741;53.252;5.788;2024-03-07T00:45:50;3.10;99.90
54124;DHT22;55741;53.252;5.788;2024-03-07T00:48:17;3.10;99.90
54124;DHT22;55741;53.252;5.788;2024-03-07T00:50:45;3.10;99.90
54124;DHT22;55741;53.252;5.788;2024-03-07T00:53:12;3.10;99.90
54124;DHT22;55741;53.252;5.788;2024-03-07T00:55:39;3.10;99.90
54124;DHT22;55741;53.252;5.788;2024-03-07T00:58:06;3.10;99.90
54124;DHT22;55741;53.252;5.788;2024-03-07T01:00:33;3.10;99.90
54124;DHT22;55741;53.252;5.788;2024-03-07T01:03:00;3.00;99.90
54124;DHT22;55741;53.252;5.788;2024-03-07T01:05:28;3.00;99.90
54124;DHT22;55741;53.252;5.788;2024-03-07T01:07:55;3.00;99.90
54124;DHT22;55741;53.252;5.788;2024-03-07T01:10:22;3.00;99.90
54124;DHT22;55741;53.252;5.788;2024-03-07T01:12:49;3.00;99.90
54124;DHT22;55741;53.252;5.788;2024-03-07T01:15:16;2.90;99.90
54124;DHT22;55741;53.252;5.788;2024-03-07T01:17:43;3.00;99.90
54124;DHT22;55741;53.252;5.788;2024-03-07T01:20:11;3.00;99.90
54124;DHT22;55741;53.252;5.788;2024-03-07T01:22:38;3.00;99.90
54124;DHT22;55741;53.252;5.788;2024-03-07T01:25:05;3.00;99.90
54124;DHT22;55741;53.252;5.788;2024-03-07T01:27:33;2.90;99.90
54124;DHT22;55741;53.252;5.788;2024-03-07T01:30:00;2.90;99.90
54124;DHT22;55741;53.252;5.788;2024-03-07T01:32:28;2.90;99.90
54124;DHT22;55741;53.252;5.788;2024-03-07T01:34:56;2.80;99.90
54124;DHT22;55741;53.252;5.788;2024-03-07T01:37:23;2.80;99.90
54124;DHT22;55741;53.252;5.788;2024-03-07T01:39:50;2.80;99.90
54124;DHT22;55741;53.252;5.788;2024-03-07T01:42:18;2.80;99.90
54124;DHT22;55741;53.252;5.788;2024-03-07T01:44:45;2.80;99.90
54124;DHT22;55741;53.252;5.788;2024-03-07T01:47:12;2.80;99.90
54124;DHT22;55741;53.252;5.788;2024-03-07T01:49:41;2.80;99.90
54124;DHT22;55741;53.252;5.788;2024-03-07T01:52:09;2.80;99.90
54124;DHT22;55741;53.252;5.788;2024-03-07T01:54:37;2.80;99.90
54124;DHT22;55741;53.252;5.788;2024-03-07T01:57:05;2.80;99.90
54124;DHT22;55741;53.252;5.788;2024-03-07T01:59:32;2.70;99.90
54124;DHT22;55741;53.252;5.788;2024-03-07T02:02:00;2.70;99.90
54124;DHT22;55741;53.252;5.788;2024-03-07T02:04:29;2.70;99.90
54124;DHT22;55741;53.252;5.788;2024-03-07T02:06:57;2.70;99.90
54124;DHT22;55741;53.252;5.788;2024-03-07T02:09:25;2.70;99.90
54124;DHT22;55741;53.252;5.788;2024-03-07T02:11:52;2.60;99.90
54124;DHT22;55741;53.252;5.788;2024-03-07T02:14:19;2.60;99.90
54124;DHT22;55741;53.252;5.788;2024-03-07T02:16:46;2.70;99.90
54124;DHT22;55741;53.252;5.788;2024-03-07T02:19:14;2.60;99.90
54124;DHT22;55741;53.252;5.788;2024-03-07T02:21:42;2.60;99.90
54124;DHT22;55741;53.252;5.788;2024-03-07T02:24:09;2.60;99.90
54124;DHT22;55741;53.252;5.788;2024-03-07T02:26:36;2.60;99.90
54124;DHT22;55741;53.252;5.788;2024-03-07T02:29:03;2.60;99.90
54124;DHT22;55741;53.252;5.788;2024-03-07T02:31:30;2.70;99.90
54124;DHT22;55741;53.252;5.788;2024-03-07T02:34:04;2.60;99.90
54124;DHT22;55741;53.252;5.788;2024-03-07T02:36:31;2.60;99.90
54124;DHT22;55741;53.252;5.788;2024-03-07T02:38:58;2.60;99.90
54124;DHT22;55741;53.252;5.788;2024-03-07T02:41:26;2.60;99.90
54124;DHT22;55741;53.252;5.788;2024-03-07T02:43:54;2.60;99.90
54124;DHT22;55741;53.252;5.788;2024-03-07T02:46:21;2.60;99.90
54124;DHT22;55741;53.252;5.788;2024-03-07T02:48:48;2.60;99.90
54124;DHT22;55741;53.252;5.788;2024-03-07T02:51:15;2.50;99.90
54124;DHT22;55741;53.252;5.788;2024-03-07T02:53:42;2.50;99.90
54124;DHT22;55741;53.252;5.788;2024-03-07T02:56:09;2.50;99.90
54124;DHT22;55741;53.252;5.788;2024-03-07T02:58:37;2.50;99.90
54124;DHT22;55741;53.252;5.788;2024-03-07T03:01:04;2.40;99.90
54124;DHT22;55741;53.252;5.788;2024-03-07T03:03:31;2.40;99.90
54124;DHT22;55741;53.252;5.788;2024-03-07T03:05:59;2.40;99.90
54124;DHT22;55741;53.252;5.788;2024-03-07T03:08:26;2.40;99.90
54124;DHT22;55741;53.252;5.788;2024-03-07T03:10:56;2.40;99.90
54124;DHT22;55741;53.252;5.788;2024-03-07T03:13:24;2.40;99.90
54124;DHT22;55741;53.252;5.788;2024-03-07T03:15:55;2.40;99.90
54124;DHT22;55741;53.252;5.788;2024-03-07T03:18:25;2.30;99.90
54124;DHT22;55741;53.252;5.788;2024-03-07T03:20:52;2.30;99.90
54124;DHT22;55741;53.252;5.788;2024-03-07T03:23:19;2.30;99.90
54124;DHT22;55741;53.252;5.788;2024-03-07T03:25:47;2.30;99.90
54124;DHT22;55741;53.252;5.788;2024-03-07T03:28:15;2.30;99.90
54124;DHT22;55741;53.252;5.788;2024-03-07T03:30:42;2.30;99.90
54124;DHT22;55741;53.252;5.788;2024-03-07T03:33:10;2.20;99.90
54124;DHT22;55741;53.252;5.788;2024-03-07T03:35:38;2.30;99.90
54124;DHT22;55741;53.252;5.788;2024-03-07T03:38:06;2.20;99.90
54124;DHT22;55741;53.252;5.788;2024-03-07T03:40:33;2.20;99.90
54124;DHT22;55741;53.252;5.788;2024-03-07T03:43:01;2.10;99.90
54124;DHT22;55741;53.252;5.788;2024-03-07T03:45:30;2.20;99.90
54124;DHT22;55741;53.252;5.788;2024-03-07T03:47:58;2.10;99.90
54124;DHT22;55741;53.252;5.788;2024-03-07T03:50:26;2.10;99.90
54124;DHT22;55741;53.252;5.788;2024-03-07T03:52:53;2.00;99.90
54124;DHT22;55741;53.252;5.788;2024-03-07T03:55:20;2.00;99.90
54124;DHT22;55741;53.252;5.788;2024-03-07T03:57:47;2.00;99.90
54124;DHT22;55741;53.252;5.788;2024-03-07T04:00:15;2.00;99.90
54124;DHT22;55741;53.252;5.788;2024-03-07T04:02:46;2.00;99.90
54124;DHT22;55741;53.252;5.788;2024-03-07T04:05:16;2.00;99.90
54124;DHT22;55741;53.252;5.788;2024-03-07T04:07:43;2.00;99.90
54124;DHT22;55741;53.252;5.788;2024-03-07T04:10:12;1.90;99.90
54124;DHT22;55741;53.252;5.788;2024-03-07T04:12:40;1.90;99.90
54124;DHT22;55741;53.252;5.788;2024-03-07T04:15:09;1.90;99.90
54124;DHT22;55741;53.252;5.788;2024-03-07T04:17:37;1.90;99.90
54124;DHT22;55741;53.252;5.788;2024-03-07T04:20:05;1.90;99.90
54124;DHT22;55741;53.252;5.788;2024-03-07T04:22:33;1.90;99.90
54124;DHT22;55741;53.252;5.788;2024-03-07T04:25:03;1.90;99.90
54124;DHT22;55741;53.252;5.788;2024-03-07T04:27:30;1.90;99.90
54124;DHT22;55741;53.252;5.788;2024-03-07T04:29:57;1.90;99.90
54124;DHT22;55741;53.252;5.788;2024-03-07T04:32:25;1.90;99.90
54124;DHT22;55741;53.252;5.788;2024-03-07T04:34:52;1.80;99.90
54124;DHT22;55741;53.252;5.788;2024-03-07T04:37:19;1.80;99.90
54124;DHT22;55741;53.252;5.788;2024-03-07T04:39:46;1.80;99.90
54124;DHT22;55741;53.252;5.788;2024-03-07T04:42:13;1.80;99.90
54124;DHT22;55741;53.252;5.788;2024-03-07T04:44:40;1.80;99.90
54124;DHT22;55741;53.252;5.788;2024-03-07T04:47:09;1.80;99.90
54124;DHT22;55741;53.252;5.788;2024-03-07T04:49:36;1.80;99.90
54124;DHT22;55741;53.252;5.788;2024-03-07T04:52:03;1.80;99.90
54124;DHT22;55741;53.252;5.788;2024-03-07T04:54:31;1.80;99.90
54124;DHT22;55741;53.252;5.788;2024-03-07T04:56:58;1.80;99.90
54124;DHT22;55741;53.252;5.788;2024-03-07T04:59:25;1.80;99.90
54124;DHT22;55741;53.252;5.788;2024-03-07T05:01:52;1.80;99.90
54124;DHT22;55741;53.252;5.788;2024-03-07T05:04:19;1.80;99.90
54124;DHT22;55741;53.252;5.788;2024-03-07T05:06:46;1.70;99.90
54124;DHT22;55741;53.252;5.788;2024-03-07T05:09:15;1.70;99.90
54124;DHT22;55741;53.252;5.788;2024-03-07T05:11:52;1.70;99.90
54124;DHT22;55741;53.252;5.788;2024-03-07T05:14:19;1.70;99.90
54124;DHT22;55741;53.252;5.788;2024-03-07T05:16:47;1.70;99.90
54124;DHT22;55741;53.252;5.788;2024-03-07T05:19:35;1.70;99.90
54124;DHT22;55741;53.252;5.788;2024-03-07T05:22:02;1.70;99.90
54124;DHT22;55741;53.252;5.788;2024-03-07T05:24:33;1.70;99.90
54124;DHT22;55741;53.252;5.788;2024-03-07T05:27:03;1.70;99.90
54124;DHT22;55741;53.252;5.788;2024-03-07T05:29:30;1.60;99.90
54124;DHT22;55741;53.252;5.788;2024-03-07T05:32:20;1.60;99.90
54124;DHT22;55741;53.252;5.788;2024-03-07T05:34:48;1.60;99.90
54124;DHT22;55741;53.252;5.788;2024-03-07T05:37:15;1.60;99.90
54124;DHT22;55741;53.252;5.788;2024-03-07T05:39:42;1.60;99.90
54124;DHT22;55741;53.252;5.788;2024-03-07T05:42:09;1.60;99.90
54124;DHT22;55741;53.252;5.788;2024-03-07T05:44:44;1.60;99.90
54124;DHT22;55741;53.252;5.788;2024-03-07T05:47:12;1.60;99.90
54124;DHT22;55741;53.252;5.788;2024-03-07T05:49:43;1.60;99.90
54124;DHT22;55741;53.252;5.788;2024-03-07T05:52:10;1.50;99.90
54124;DHT22;55741;53.252;5.788;2024-03-07T05:54:37;1.50;99.90
54124;DHT22;55741;53.252;5.788;2024-03-07T05:57:05;1.50;99.90
54124;DHT22;55741;53.252;5.788;2024-03-07T05:59:34;1.50;99.90
54124;DHT22;55741;53.252;5.788;2024-03-07T06:02:01;1.60;99.90
54124;DHT22;55741;53.252;5.788;2024-03-07T06:04:28;1.50;99.90
54124;DHT22;55741;53.252;5.788;2024-03-07T06:06:56;1.50;99.90
54124;DHT22;55741;53.252;5.788;2024-03-07T06:09:23;1.50;99.90
54124;DHT22;55741;53.252;5.788;2024-03-07T06:11:50;1.60;99.90
54124;DHT22;55741;53.252;5.788;2024-03-07T06:14:18;1.50;99.90
54124;DHT22;55741;53.252;5.788;2024-03-07T06:16:46;1.50;99.90
54124;DHT22;55741;53.252;5.788;2024-03-07T06:19:13;1.50;99.90
54124;DHT22;55741;53.252;5.788;2024-03-07T06:21:40;1.50;99.90
54124;DHT22;55741;53.252;5.788;2024-03-07T06:24:08;1.50;99.90
54124;DHT22;55741;53.252;5.788;2024-03-07T06:26:37;1.50;99.90
54124;DHT22;55741;53.252;5.788;2024-03-07T06:29:11;1.50;99.90
54124;DHT22;55741;53.252;5.788;2024-03-07T06:31:39;1.50;99.90
54124;DHT22;55741;53.252;5.788;2024-03-07T06:34:07;1.60;99.90
54124;DHT22;55741;53.252;5.788;2024-03-07T06:36:35;1.50;99.90
54124;DHT22;55741;53.252;5.788;2024-03-07T06:39:03;1.50;99.90
54124;DHT22;55741;53.252;5.788;2024-03-07T06:41:33;1.50;99.90
54124;DHT22;55741;53.252;5.788;2024-03-07T06:44:00;1.60;99.90
54124;DHT22;55741;53.252;5.788;2024-03-07T06:46:28;1.70;99.90
54124;DHT22;55741;53.252;5.788;2024-03-07T06:48:57;1.70;99.90
54124;DHT22;55741;53.252;5.788;2024-03-07T06:51:24;1.80;99.90
54124;DHT22;55741;53.252;5.788;2024-03-07T06:53:54;1.70;99.90
54124;DHT22;55741;53.252;5.788;2024-03-07T06:56:22;1.80;99.90
54124;DHT22;55741;53.252;5.788;2024-03-07T06:58:51;1.80;99.90
54124;DHT22;55741;53.252;5.788;2024-03-07T07:01:18;1.90;99.90
54124;DHT22;55741;53.252;5.788;2024-03-07T07:03:46;1.90;99.90
54124;DHT22;55741;53.252;5.788;2024-03-07T07:06:14;1.90;99.90
54124;DHT22;55741;53.252;5.788;2024-03-07T07:08:41;2.00;99.90
54124;DHT22;55741;53.252;5.788;2024-03-07T07:11:08;2.00;99.90
54124;DHT22;55741;53.252;5.788;2024-03-07T07:13:38;2.10;99.90
54124;DHT22;55741;53.252;5.788;2024-03-07T07:16:05;2.10;99.90
54124;DHT22;55741;53.252;5.788;2024-03-07T07:18:33;2.10;99.90
54124;DHT22;55741;53.252;5.788;2024-03-07T07:21:00;2.20;99.90
54124;DHT22;55741;53.252;5.788;2024-03-07T07:23:29;2.30;99.90
54124;DHT22;55741;53.252;5.788;2024-03-07T07:25:56;2.30;99.90
54124;DHT22;55741;53.252;5.788;2024-03-07T07:28:23;2.40;99.90
54124;DHT22;55741;53.252;5.788;2024-03-07T07:30:51;2.40;99.90
54124;DHT22;55741;53.252;5.788;2024-03-07T07:33:18;2.40;99.90
54124;DHT22;55741;53.252;5.788;2024-03-07T07:35:45;2.50;99.90
54124;DHT22;55741;53.252;5.788;2024-03-07T07:38:12;2.60;99.90
54124;DHT22;55741;53.252;5.788;2024-03-07T07:40:41;2.60;99.90
54124;DHT22;55741;53.252;5.788;2024-03-07T07:43:08;2.80;99.90
54124;DHT22;55741;53.252;5.788;2024-03-07T07:45:35;2.80;99.90
54124;DHT22;55741;53.252;5.788;2024-03-07T07:48:03;2.90;99.90
54124;DHT22;55741;53.252;5.788;2024-03-07T07:50:31;2.90;99.90
54124;DHT22;55741;53.252;5.788;2024-03-07T07:53:01;3.10;99.90
54124;DHT22;55741;53.252;5.788;2024-03-07T07:55:31;3.10;99.90
54124;DHT22;55741;53.252;5.788;2024-03-07T07:58:00;3.20;99.90
54124;DHT22;55741;53.252;5.788;2024-03-07T08:00:31;3.30;99.90
54124;DHT22;55741;53.252;5.788;2024-03-07T08:03:02;3.30;99.90
54124;DHT22;55741;53.252;5.788;2024-03-07T08:05:31;3.40;99.90
54124;DHT22;55741;53.252;5.788;2024-03-07T08:08:01;3.50;99.90
54124;DHT22;55741;53.252;5.788;2024-03-07T08:10:34;3.50;99.90
54124;DHT22;55741;53.252;5.788;2024-03-07T08:13:03;3.50;99.90
54124;DHT22;55741;53.252;5.788;2024-03-07T08:15:31;3.60;99.90
54124;DHT22;55741;53.252;5.788;2024-03-07T08:17:58;3.60;99.90
54124;DHT22;55741;53.252;5.788;2024-03-07T08:20:26;3.60;99.90
54124;DHT22;55741;53.252;5.788;2024-03-07T08:22:55;3.80;99.90
54124;DHT22;55741;53.252;5.788;2024-03-07T08:25:24;3.80;99.90
54124;DHT22;55741;53.252;5.788;2024-03-07T08:27:52;3.90;99.90
54124;DHT22;55741;53.252;5.788;2024-03-07T08:30:20;3.80;99.90
54124;DHT22;55741;53.252;5.788;2024-03-07T08:32:50;3.90;99.90
54124;DHT22;55741;53.252;5.788;2024-03-07T08:35:18;3.90;99.90
54124;DHT22;55741;53.252;5.788;2024-03-07T08:37:48;4.00;99.90
54124;DHT22;55741;53.252;5.788;2024-03-07T08:40:20;4.00;99.90
54124;DHT22;55741;53.252;5.788;2024-03-07T08:42:52;4.10;99.90
54124;DHT22;55741;53.252;5.788;2024-03-07T08:45:19;4.10;99.90
54124;DHT22;55741;53.252;5.788;2024-03-07T08:47:48;4.20;99.90
54124;DHT22;55741;53.252;5.788;2024-03-07T08:50:16;4.20;99.90
54124;DHT22;55741;53.252;5.788;2024-03-07T08:52:47;4.20;99.90
54124;DHT22;55741;53.252;5.788;2024-03-07T08:55:16;4.20;99.90
54124;DHT22;55741;53.252;5.788;2024-03-07T08:57:44;4.20;99.90
54124;DHT22;55741;53.252;5.788;2024-03-07T09:00:16;4.30;99.90
54124;DHT22;55741;53.252;5.788;2024-03-07T09:02:58;4.20;99.90
54124;DHT22;55741;53.252;5.788;2024-03-07T09:05:26;4.20;99.90
54124;DHT22;55741;53.252;5.788;2024-03-07T09:07:54;4.20;99.90
54124;DHT22;55741;53.252;5.788;2024-03-07T09:10:22;4.20;99.90
54124;DHT22;55741;53.252;5.788;2024-03-07T09:12:51;4.20;99.90
54124;DHT22;55741;53.252;5.788;2024-03-07T09:15:18;4.20;99.90
54124;DHT22;55741;53.252;5.788;2024-03-07T09:17:48;4.20;99.90
54124;DHT22;55741;53.252;5.788;2024-03-07T09:20:15;4.20;99.90
54124;DHT22;55741;53.252;5.788;2024-03-07T09:22:43;4.10;99.90
54124;DHT22;55741;53.252;5.788;2024-03-07T09:25:10;4.10;99.90
54124;DHT22;55741;53.252;5.788;2024-03-07T09:27:39;4.10;99.90
54124;DHT22;55741;53.252;5.788;2024-03-07T09:30:10;4.10;99.90
54124;DHT22;55741;53.252;5.788;2024-03-07T09:32:42;4.00;99.90
54124;DHT22;55741;53.252;5.788;2024-03-07T09:35:09;4.00;99.90
54124;DHT22;55741;53.252;5.788;2024-03-07T09:37:41;4.00;99.90
54124;DHT22;55741;53.252;5.788;2024-03-07T09:40:09;4.00;99.90
54124;DHT22;55741;53.252;5.788;2024-03-07T09:42:49;4.00;99.90
54124;DHT22;55741;53.252;5.788;2024-03-07T09:45:20;4.00;99.90
54124;DHT22;55741;53.252;5.788;2024-03-07T09:47:48;4.00;99.90
54124;DHT22;55741;53.252;5.788;2024-03-07T09:50:18;4.10;99.90
54124;DHT22;55741;53.252;5.788;2024-03-07T09:52:53;4.10;99.90
54124;DHT22;55741;53.252;5.788;2024-03-07T09:55:20;4.20;99.90
54124;DHT22;55741;53.252;5.788;2024-03-07T09:57:49;4.20;99.90
54124;DHT22;55741;53.252;5.788;2024-03-07T10:00:18;4.20;99.90
54124;DHT22;55741;53.252;5.788;2024-03-07T10:03:02;4.20;99.90
54124;DHT22;55741;53.252;5.788;2024-03-07T10:05:30;4.20;99.90
54124;DHT22;55741;53.252;5.788;2024-03-07T10:07:59;4.10;99.90
54124;DHT22;55741;53.252;5.788;2024-03-07T10:10:26;4.20;99.90
54124;DHT22;55741;53.252;5.788;2024-03-07T10:12:53;4.10;99.90
54124;DHT22;55741;53.252;5.788;2024-03-07T10:15:20;4.10;99.90
54124;DHT22;55741;53.252;5.788;2024-03-07T10:17:48;4.10;99.90
54124;DHT22;55741;53.252;5.788;2024-03-07T10:20:18;4.10;99.90
54124;DHT22;55741;53.252;5.788;2024-03-07T10:22:47;4.10;99.90
54124;DHT22;55741;53.252;5.788;2024-03-07T10:25:20;4.10;99.90
54124;DHT22;55741;53.252;5.788;2024-03-07T10:27:48;4.00;99.90
54124;DHT22;55741;53.252;5.788;2024-03-07T10:30:15;4.10;99.90
54124;DHT22;55741;53.252;5.788;2024-03-07T10:32:48;4.10;99.90
54124;DHT22;55741;53.252;5.788;2024-03-07T10:35:22;4.00;99.90
54124;DHT22;55741;53.252;5.788;2024-03-07T10:37:54;4.00;99.90
54124;DHT22;55741;53.252;5.788;2024-03-07T10:40:22;4.00;99.90
54124;DHT22;55741;53.252;5.788;2024-03-07T10:42:50;4.00;99.90
54124;DHT22;55741;53.252;5.788;2024-03-07T10:45:20;4.00;99.90
54124;DHT22;55741;53.252;5.788;2024-03-07T10:47:53;4.10;99.90
54124;DHT22;55741;53.252;5.788;2024-03-07T10:53:32;4.10;99.90
54124;DHT22;55741;53.252;5.788;2024-03-07T11:01:20;4.10;99.90
54124;DHT22;55741;53.252;5.788;2024-03-07T11:03:51;4.10;99.90
54124;DHT22;55741;53.252;5.788;2024-03-07T11:06:19;4.10;99.90
54124;DHT22;55741;53.252;5.788;2024-03-07T11:08:47;4.10;99.90
54124;DHT22;55741;53.252;5.788;2024-03-07T11:11:14;4.10;99.90
54124;DHT22;55741;53.252;5.788;2024-03-07T11:13:41;4.10;99.90
54124;DHT22;55741;53.252;5.788;2024-03-07T11:16:09;4.10;99.90
54124;DHT22;55741;53.252;5.788;2024-03-07T11:18:37;4.10;99.90
54124;DHT22;55741;53.252;5.788;2024-03-07T11:21:04;4.10;99.90
54124;DHT22;55741;53.252;5.788;2024-03-07T11:23:34;4.20;99.90
54124;DHT22;55741;53.252;5.788;2024-03-07T11:26:06;4.20;99.90
54124;DHT22;55741;53.252;5.788;2024-03-07T11:28:39;4.20;99.90
54124;DHT22;55741;53.252;5.788;2024-03-07T11:31:12;4.20;99.90
54124;DHT22;55741;53.252;5.788;2024-03-07T11:33:42;4.30;99.90
54124;DHT22;55741;53.252;5.788;2024-03-07T11:36:47;4.40;99.90
54124;DHT22;55741;53.252;5.788;2024-03-07T11:42:09;4.70;99.90
54124;DHT22;55741;53.252;5.788;2024-03-07T11:44:36;4.80;99.90
54124;DHT22;55741;53.252;5.788;2024-03-07T11:47:06;4.90;99.90
54124;DHT22;55741;53.252;5.788;2024-03-07T11:49:36;4.90;99.90
54124;DHT22;55741;53.252;5.788;2024-03-07T11:52:04;4.90;99.90
54124;DHT22;55741;53.252;5.788;2024-03-07T11:54:39;5.00;99.90
54124;DHT22;55741;53.252;5.788;2024-03-07T11:57:16;5.10;99.90
54124;DHT22;55741;53.252;5.788;2024-03-07T11:59:47;5.20;99.90
54124;DHT22;55741;53.252;5.788;2024-03-07T12:02:19;5.30;99.90
54124;DHT22;55741;53.252;5.788;2024-03-07T12:04:49;5.30;99.90
54124;DHT22;55741;53.252;5.788;2024-03-07T12:07:16;5.40;99.90
54124;DHT22;55741;53.252;5.788;2024-03-07T12:09:44;5.40;99.90
54124;DHT22;55741;53.252;5.788;2024-03-07T12:12:17;5.50;99.90
54124;DHT22;55741;53.252;5.788;2024-03-07T12:14:45;5.60;99.90
54124;DHT22;55741;53.252;5.788;2024-03-07T12:17:12;5.60;99.90
54124;DHT22;55741;53.252;5.788;2024-03-07T12:19:41;5.70;99.90
54124;DHT22;55741;53.252;5.788;2024-03-07T12:22:09;5.70;99.90
54124;DHT22;55741;53.252;5.788;2024-03-07T12:24:42;5.70;99.90
54124;DHT22;55741;53.252;5.788;2024-03-07T12:27:10;5.80;99.90
54124;DHT22;55741;53.252;5.788;2024-03-07T12:29:39;5.70;99.90
54124;DHT22;55741;53.252;5.788;2024-03-07T12:32:07;5.80;99.90
54124;DHT22;55741;53.252;5.788;2024-03-07T12:34:43;5.80;99.90
54124;DHT22;55741;53.252;5.788;2024-03-07T12:37:13;5.90;99.90
54124;DHT22;55741;53.252;5.788;2024-03-07T12:39:44;6.00;99.90
54124;DHT22;55741;53.252;5.788;2024-03-07T12:42:16;6.10;99.90
54124;DHT22;55741;53.252;5.788;2024-03-07T12:44:50;6.20;99.90
54124;DHT22;55741;53.252;5.788;2024-03-07T12:47:17;6.20;99.90
54124;DHT22;55741;53.252;5.788;2024-03-07T12:49:45;6.20;99.90
54124;DHT22;55741;53.252;5.788;2024-03-07T12:52:12;6.10;99.90
54124;DHT22;55741;53.252;5.788;2024-03-07T12:54:43;6.10;99.90
54124;DHT22;55741;53.252;5.788;2024-03-07T12:57:10;6.10;99.90
54124;DHT22;55741;53.252;5.788;2024-03-07T12:59:38;6.10;99.90
54124;DHT22;55741;53.252;5.788;2024-03-07T13:02:09;6.10;99.90
54124;DHT22;55741;53.252;5.788;2024-03-07T13:04:36;6.10;99.90
54124;DHT22;55741;53.252;5.788;2024-03-07T13:07:06;6.10;99.90
54124;DHT22;55741;53.252;5.788;2024-03-07T13:09:34;6.10;99.90
54124;DHT22;55741;53.252;5.788;2024-03-07T13:12:01;6.20;99.90
54124;DHT22;55741;53.252;5.788;2024-03-07T13:14:31;6.40;99.90
54124;DHT22;55741;53.252;5.788;2024-03-07T13:17:04;6.50;99.90
54124;DHT22;55741;53.252;5.788;2024-03-07T13:19:33;6.50;99.90
54124;DHT22;55741;53.252;5.788;2024-03-07T13:22:01;6.50;99.90
54124;DHT22;55741;53.252;5.788;2024-03-07T13:24:28;6.50;99.90
54124;DHT22;55741;53.252;5.788;2024-03-07T13:26:57;6.40;99.90
54124;DHT22;55741;53.252;5.788;2024-03-07T13:29:24;6.40;99.90
54124;DHT22;55741;53.252;5.788;2024-03-07T13:31:51;6.40;99.90
54124;DHT22;55741;53.252;5.788;2024-03-07T13:34:19;6.40;99.90
54124;DHT22;55741;53.252;5.788;2024-03-07T13:36:46;6.40;99.90
54124;DHT22;55741;53.252;5.788;2024-03-07T13:39:13;6.40;99.90
54124;DHT22;55741;53.252;5.788;2024-03-07T13:41:41;6.40;99.90
54124;DHT22;55741;53.252;5.788;2024-03-07T13:44:08;6.40;99.90
54124;DHT22;55741;53.252;5.788;2024-03-07T13:46:37;6.40;99.90
54124;DHT22;55741;53.252;5.788;2024-03-07T13:49:04;6.50;99.90
54124;DHT22;55741;53.252;5.788;2024-03-07T13:51:34;6.50;99.90
54124;DHT22;55741;53.252;5.788;2024-03-07T13:54:06;6.50;99.90
54124;DHT22;55741;53.252;5.788;2024-03-07T14:08:49;6.50;99.90
54124;DHT22;55741;53.252;5.788;2024-03-07T14:11:52;6.50;99.90
54124;DHT22;55741;53.252;5.788;2024-03-07T14:25:53;6.40;99.90
54124;DHT22;55741;53.252;5.788;2024-03-07T14:28:48;6.40;99.90
54124;DHT22;55741;53.252;5.788;2024-03-07T14:31:17;6.40;99.90
54124;DHT22;55741;53.252;5.788;2024-03-07T14:36:43;6.40;99.90
54124;DHT22;55741;53.252;5.788;2024-03-07T14:39:13;6.40;99.90
54124;DHT22;55741;53.252;5.788;2024-03-07T14:42:01;6.40;99.90
54124;DHT22;55741;53.252;5.788;2024-03-07T14:44:31;6.40;99.90
54124;DHT22;55741;53.252;5.788;2024-03-07T14:47:02;6.40;99.90
54124;DHT22;55741;53.252;5.788;2024-03-07T14:49:33;6.40;99.90
54124;DHT22;55741;53.252;5.788;2024-03-07T14:52:01;6.40;99.90
54124;DHT22;55741;53.252;5.788;2024-03-07T14:54:30;6.40;99.90
54124;DHT22;55741;53.252;5.788;2024-03-07T14:56:59;6.30;99.90
54124;DHT22;55741;53.252;5.788;2024-03-07T14:59:26;6.30;99.90
54124;DHT22;55741;53.252;5.788;2024-03-07T15:01:54;6.30;99.90
54124;DHT22;55741;53.252;5.788;2024-03-07T15:04:22;6.30;99.90
54124;DHT22;55741;53.252;5.788;2024-03-07T15:06:49;6.30;99.90
54124;DHT22;55741;53.252;5.788;2024-03-07T15:09:19;6.30;99.90
54124;DHT22;55741;53.252;5.788;2024-03-07T15:11:46;6.30;99.90
54124;DHT22;55741;53.252;5.788;2024-03-07T15:14:13;6.30;99.90
54124;DHT22;55741;53.252;5.788;2024-03-07T15:16:40;6.30;99.90
54124;DHT22;55741;53.252;5.788;2024-03-07T15:19:08;6.20;99.90
54124;DHT22;55741;53.252;5.788;2024-03-07T15:21:36;6.20;99.90
54124;DHT22;55741;53.252;5.788;2024-03-07T15:24:07;6.20;99.90
54124;DHT22;55741;53.252;5.788;2024-03-07T15:26:34;6.20;99.90
54124;DHT22;55741;53.252;5.788;2024-03-07T15:29:01;6.20;99.90
54124;DHT22;55741;53.252;5.788;2024-03-07T15:31:29;6.20;99.90
54124;DHT22;55741;53.252;5.788;2024-03-07T15:33:56;6.10;99.90
54124;DHT22;55741;53.252;5.788;2024-03-07T15:36:23;6.10;99.90
54124;DHT22;55741;53.252;5.788;2024-03-07T15:38:52;6.10;99.90
54124;DHT22;55741;53.252;5.788;2024-03-07T15:41:19;6.10;99.90
54124;DHT22;55741;53.252;5.788;2024-03-07T15:43:46;6.10;99.90
54124;DHT22;55741;53.252;5.788;2024-03-07T15:46:14;6.10;99.90
54124;DHT22;55741;53.252;5.788;2024-03-07T15:48:44;6.10;99.90
54124;DHT22;55741;53.252;5.788;2024-03-07T15:51:12;6.10;99.90
54124;DHT22;55741;53.252;5.788;2024-03-07T15:53:39;6.10;99.90
54124;DHT22;55741;53.252;5.788;2024-03-07T15:56:07;6.10;99.90
54124;DHT22;55741;53.252;5.788;2024-03-07T15:58:36;6.10;99.90
54124;DHT22;55741;53.252;5.788;2024-03-07T16:01:03;6.10;99.90
54124;DHT22;55741;53.252;5.788;2024-03-07T16:03:30;6.10;99.90
54124;DHT22;55741;53.252;5.788;2024-03-07T16:05:57;6.10;99.90
54124;DHT22;55741;53.252;5.788;2024-03-07T16:08:25;6.10;99.90
54124;DHT22;55741;53.252;5.788;2024-03-07T16:10:52;6.10;99.90
54124;DHT22;55741;53.252;5.788;2024-03-07T16:13:19;6.10;99.90
54124;DHT22;55741;53.252;5.788;2024-03-07T16:15:47;6.20;99.90
54124;DHT22;55741;53.252;5.788;2024-03-07T16:18:14;6.20;99.90
54124;DHT22;55741;53.252;5.788;2024-03-07T16:20:41;6.10;99.90
54124;DHT22;55741;53.252;5.788;2024-03-07T16:23:12;6.20;99.90
54124;DHT22;55741;53.252;5.788;2024-03-07T16:25:41;6.20;99.90
54124;DHT22;55741;53.252;5.788;2024-03-07T16:28:09;6.20;99.90
54124;DHT22;55741;53.252;5.788;2024-03-07T16:30:39;6.20;99.90
54124;DHT22;55741;53.252;5.788;2024-03-07T16:33:11;6.10;99.90